createdAt,value
2023-03-24T00:02:51.550Z,13.85
2023-03-24T00:06:01.919Z,13.82
2023-03-24T00:09:06.564Z,13.80
2023-03-24T00:12:11.397Z,13.78
2023-03-24T00:15:19.124Z,13.76
2023-03-24T00:18:26.056Z,13.73
2023-03-24T00:21:30.580Z,13.69
2023-03-24T00:24:35.337Z,13.65
2023-03-24T00:27:40.070Z,13.62
2023-03-24T00:30:51.968Z,13.58
2023-03-24T00:33:56.703Z,13.54
2023-03-24T00:37:01.193Z,13.50
2023-03-24T00:40:08.292Z,13.45
2023-03-24T00:43:14.118Z,13.42
2023-03-24T00:46:28.952Z,13.40
2023-03-24T00:49:46.152Z,13.38
2023-03-24T00:52:50.767Z,13.36
2023-03-24T00:55:55.502Z,13.34
2023-03-24T00:59:02.665Z,13.30
2023-03-24T01:02:11.981Z,13.24
2023-03-24T01:05:17.739Z,13.19
2023-03-24T01:08:22.298Z,13.14
2023-03-24T01:11:28.470Z,13.10
2023-03-24T01:14:33.213Z,13.08
2023-03-24T01:17:37.775Z,13.06
2023-03-24T01:20:45.887Z,13.04
2023-03-24T01:23:50.553Z,13.01
2023-03-24T01:26:55.098Z,12.99
2023-03-24T01:30:01.894Z,12.97
2023-03-24T01:33:06.893Z,12.95
2023-03-24T01:36:11.800Z,12.95
2023-03-24T01:39:16.613Z,12.96
2023-03-24T01:42:22.101Z,12.97
2023-03-24T01:45:55.228Z,12.98
2023-03-24T01:49:01.798Z,12.99
2023-03-24T01:52:08.567Z,12.98
2023-03-24T01:55:18.729Z,12.96
2023-03-24T01:58:23.601Z,12.91
2023-03-24T02:01:30.866Z,12.84
2023-03-24T02:04:38.869Z,12.76
2023-03-24T02:07:48.200Z,12.73
2023-03-24T02:10:55.033Z,12.69
2023-03-24T02:13:59.938Z,12.66
2023-03-24T02:17:16.421Z,12.64
2023-03-24T02:20:41.585Z,12.64
2023-03-24T02:24:13.389Z,12.67
2023-03-24T02:27:30.304Z,12.69
2023-03-24T02:30:45.119Z,12.69
2023-03-24T02:34:04.813Z,12.67
2023-03-24T02:37:32.779Z,12.61
2023-03-24T02:40:38.896Z,12.53
2023-03-24T02:43:47.646Z,12.46
2023-03-24T02:46:55.297Z,12.36
2023-03-24T02:50:04.103Z,12.28
2023-03-24T02:53:11.113Z,12.22
2023-03-24T02:56:18.513Z,12.17
2023-03-24T02:59:27.701Z,12.12
2023-03-24T03:02:34.476Z,12.06
2023-03-24T03:05:43.458Z,11.99
2023-03-24T03:08:49.361Z,11.93
2023-03-24T03:11:55.922Z,11.92
2023-03-24T03:15:03.106Z,11.90
2023-03-24T03:18:11.131Z,11.85
2023-03-24T03:21:17.349Z,11.78
2023-03-24T03:24:27.382Z,11.73
2023-03-24T03:27:39.170Z,11.69
2023-03-24T03:30:47.737Z,11.65
2023-03-24T03:33:55.569Z,11.63
2023-03-24T03:37:05.109Z,11.62
2023-03-24T03:40:12.613Z,11.61
2023-03-24T03:43:17.663Z,11.61
2023-03-24T03:46:22.349Z,11.62
2023-03-24T03:49:27.105Z,11.62
2023-03-24T03:52:31.792Z,11.63
2023-03-24T03:55:36.645Z,11.64
2023-03-24T03:58:42.519Z,11.63
2023-03-24T04:01:48.951Z,11.62
2023-03-24T04:05:06.966Z,11.62
2023-03-24T04:08:16.028Z,11.64
2023-03-24T04:11:34.075Z,11.69
2023-03-24T04:14:44.993Z,11.76
2023-03-24T04:17:56.873Z,11.81
2023-03-24T04:21:08.915Z,11.82
2023-03-24T04:24:19.459Z,11.77
2023-03-24T04:27:28.406Z,11.71
2023-03-24T04:30:37.427Z,11.76
2023-03-24T04:33:45.644Z,11.84
2023-03-24T04:36:54.706Z,11.88
2023-03-24T04:40:00.357Z,11.91
2023-03-24T04:43:07.475Z,11.91
2023-03-24T04:46:12.531Z,11.86
2023-03-24T04:49:17.034Z,11.86
2023-03-24T04:52:21.565Z,11.95
2023-03-24T04:55:34.570Z,11.90
2023-03-24T04:58:39.114Z,11.81
2023-03-24T05:01:50.363Z,11.75
2023-03-24T05:04:55.377Z,11.69
2023-03-24T05:08:00.335Z,11.64
2023-03-24T05:11:04.874Z,11.58
2023-03-24T05:14:09.430Z,11.54
2023-03-24T05:17:14.034Z,11.52
2023-03-24T05:20:18.664Z,11.53
2023-03-24T05:23:23.195Z,11.58
2023-03-24T05:26:27.816Z,11.61
2023-03-24T05:29:32.372Z,11.61
2023-03-24T05:32:37.115Z,11.60
2023-03-24T05:35:41.735Z,11.60
2023-03-24T05:38:46.303Z,11.61
2023-03-24T05:41:50.969Z,11.63
2023-03-24T05:44:55.581Z,11.65
2023-03-24T05:48:00.142Z,11.67
2023-03-24T05:51:04.838Z,11.68
2023-03-24T05:54:09.467Z,11.73
2023-03-24T05:57:16.198Z,11.78
2023-03-24T06:00:23.406Z,11.84
2023-03-24T06:03:34.423Z,11.88
2023-03-24T06:06:41.112Z,11.92
2023-03-24T06:09:47.348Z,11.97
2023-03-24T06:12:52.197Z,12.03
2023-03-24T06:15:59.420Z,12.07
2023-03-24T06:19:07.012Z,12.12
2023-03-24T06:22:11.870Z,12.17
2023-03-24T06:25:17.948Z,12.23
2023-03-24T06:28:22.618Z,12.29
2023-03-24T06:31:29.728Z,12.34
2023-03-24T06:34:34.622Z,12.39
2023-03-24T06:37:39.310Z,12.42
2023-03-24T06:40:43.874Z,12.45
2023-03-24T06:43:48.398Z,12.46
2023-03-24T06:46:52.857Z,12.47
2023-03-24T06:49:57.455Z,12.48
2023-03-24T06:53:02.193Z,12.47
2023-03-24T06:56:07.686Z,12.46
2023-03-24T06:59:12.159Z,12.44
2023-03-24T07:02:17.121Z,12.46
2023-03-24T07:05:22.069Z,12.47
2023-03-24T07:08:37.144Z,12.50
2023-03-24T07:11:43.379Z,12.52
2023-03-24T07:14:47.983Z,12.56
2023-03-24T07:17:52.565Z,12.60
2023-03-24T07:20:57.150Z,12.64
2023-03-24T07:24:02.344Z,12.70
2023-03-24T07:27:06.915Z,12.80
2023-03-24T07:30:12.078Z,12.90
2023-03-24T07:33:16.590Z,13.02
2023-03-24T07:36:21.256Z,13.13
2023-03-24T07:39:25.847Z,13.23
2023-03-24T07:42:30.274Z,13.31
2023-03-24T07:45:35.024Z,13.36
2023-03-24T07:48:40.009Z,13.46
2023-03-24T07:51:44.680Z,13.56
2023-03-24T07:54:49.295Z,13.64
2023-03-24T07:57:53.808Z,13.72
2023-03-24T08:00:58.412Z,13.83
2023-03-24T08:04:03.005Z,13.99
2023-03-24T08:07:08.553Z,14.14
2023-03-24T08:10:14.181Z,14.25
2023-03-24T08:13:18.897Z,14.33
2023-03-24T08:16:23.551Z,14.45
2023-03-24T08:19:28.149Z,14.54
2023-03-24T08:22:32.698Z,14.68
2023-03-24T08:25:37.586Z,14.84
2023-03-24T08:28:42.914Z,14.99
2023-03-24T08:31:47.394Z,15.14
2023-03-24T08:34:52.108Z,15.28
2023-03-24T08:37:56.657Z,15.43
2023-03-24T08:41:02.762Z,15.59
2023-03-24T08:44:07.720Z,15.76
2023-03-24T08:47:13.139Z,15.93
2023-03-24T08:50:18.117Z,16.05
2023-03-24T08:53:22.870Z,16.17
2023-03-24T08:56:27.398Z,16.29
2023-03-24T08:59:31.857Z,16.42
2023-03-24T09:02:36.563Z,16.55
2023-03-24T09:05:54.031Z,16.68
2023-03-24T09:08:58.690Z,16.86
2023-03-24T09:12:03.313Z,17.04
2023-03-24T09:15:09.021Z,17.23
2023-03-24T09:18:13.494Z,17.45
2023-03-24T09:21:18.319Z,17.60
2023-03-24T09:24:22.957Z,17.66
2023-03-24T09:27:27.446Z,17.72
2023-03-24T09:30:33.940Z,17.78
2023-03-24T09:33:39.697Z,17.85
2023-03-24T09:36:44.338Z,17.91
2023-03-24T09:39:49.195Z,17.94
2023-03-24T09:42:56.900Z,17.91
2023-03-24T09:46:03.166Z,17.95
2023-03-24T09:49:07.652Z,18.03
2023-03-24T09:52:15.291Z,18.11
2023-03-24T09:55:22.633Z,18.21
2023-03-24T09:58:29.843Z,18.24
2023-03-24T10:01:35.060Z,18.19
2023-03-24T10:04:39.814Z,18.14
2023-03-24T10:07:48.674Z,18.26
2023-03-24T10:10:59.528Z,18.54
2023-03-24T10:14:11.954Z,18.77
2023-03-24T10:17:21.477Z,18.89
2023-03-24T10:20:33.260Z,18.93
2023-03-24T10:23:39.211Z,18.93
2023-03-24T10:26:46.719Z,18.92
2023-03-24T10:29:54.246Z,18.96
2023-03-24T10:32:58.810Z,18.93
2023-03-24T10:36:07.782Z,18.93
2023-03-24T10:39:20.924Z,18.95
2023-03-24T10:42:32.917Z,18.98
2023-03-24T10:45:38.844Z,19.06
2023-03-24T10:48:47.527Z,19.05
2023-03-24T10:51:52.723Z,19.00
2023-03-24T10:54:58.423Z,18.96
2023-03-24T10:58:03.218Z,18.88
2023-03-24T11:01:11.682Z,18.87
2023-03-24T11:04:19.979Z,18.96
2023-03-24T11:07:25.692Z,19.06
2023-03-24T11:10:30.323Z,19.11
2023-03-24T11:13:35.264Z,19.11
2023-03-24T11:16:44.405Z,19.11
2023-03-24T11:19:55.572Z,19.11
2023-03-24T11:23:01.331Z,19.13
2023-03-24T11:26:08.326Z,19.17
2023-03-24T11:29:14.609Z,19.19
2023-03-24T11:32:21.509Z,19.22
2023-03-24T11:35:39.085Z,19.28
2023-03-24T11:38:59.586Z,19.32
2023-03-24T11:42:15.077Z,19.39
2023-03-24T11:45:24.514Z,19.47
2023-03-24T11:48:31.409Z,19.52
2023-03-24T11:51:37.770Z,19.57
2023-03-24T11:54:42.389Z,19.66
2023-03-24T11:57:53.883Z,19.76
2023-03-24T12:01:02.154Z,19.87
2023-03-24T12:04:23.003Z,19.98
2023-03-24T12:07:44.635Z,20.09
2023-03-24T12:10:57.115Z,20.21
2023-03-24T12:14:03.202Z,20.33
2023-03-24T12:17:11.155Z,20.44
2023-03-24T12:20:20.556Z,20.51
2023-03-24T12:23:28.400Z,20.56
2023-03-24T12:26:33.386Z,20.59
2023-03-24T12:29:48.459Z,20.61
2023-03-24T12:33:01.391Z,20.65
2023-03-24T12:36:13.792Z,20.72
2023-03-24T12:39:23.550Z,20.86
2023-03-24T12:42:32.795Z,20.99
2023-03-24T12:45:45.754Z,21.15
2023-03-24T12:49:03.004Z,21.26
2023-03-24T12:52:16.973Z,21.30
2023-03-24T12:55:25.521Z,21.34
2023-03-24T12:58:34.740Z,21.39
2023-03-24T13:01:40.786Z,21.38
2023-03-24T13:04:47.365Z,21.35
2023-03-24T13:07:54.782Z,21.28
2023-03-24T13:11:02.937Z,21.23
2023-03-24T13:14:12.461Z,21.24
2023-03-24T13:17:20.624Z,21.23
2023-03-24T13:20:27.636Z,21.18
2023-03-24T13:23:40.323Z,21.10
2023-03-24T13:26:50.280Z,21.01
2023-03-24T13:30:16.937Z,20.96
2023-03-24T13:33:23.298Z,20.91
2023-03-24T13:36:36.253Z,20.88
2023-03-24T13:39:40.947Z,20.88
2023-03-24T13:42:47.145Z,20.85
2023-03-24T13:45:53.198Z,20.79
2023-03-24T13:48:58.847Z,20.74
2023-03-24T13:52:06.422Z,20.72
2023-03-24T13:55:14.116Z,20.73
2023-03-24T13:58:20.696Z,20.74
2023-03-24T14:01:35.080Z,20.73
2023-03-24T14:04:49.574Z,20.71
2023-03-24T14:08:10.915Z,20.67
2023-03-24T14:11:32.287Z,20.65
2023-03-24T14:14:37.181Z,20.60
2023-03-24T14:17:44.244Z,20.54
2023-03-24T14:21:01.984Z,20.47
2023-03-24T14:24:17.415Z,20.42
2023-03-24T14:27:31.933Z,20.36
2023-03-24T14:30:40.876Z,20.27
2023-03-24T14:33:46.663Z,20.17
2023-03-24T14:37:00.262Z,20.09
2023-03-24T14:40:06.699Z,19.96
2023-03-24T14:43:24.231Z,19.83
2023-03-24T14:46:50.367Z,19.73
2023-03-24T14:49:55.743Z,19.64
2023-03-24T14:53:02.292Z,19.57
2023-03-24T14:56:07.988Z,19.50
2023-03-24T14:59:19.412Z,19.41
2023-03-24T15:02:33.160Z,19.31
2023-03-24T15:05:38.988Z,19.22
2023-03-24T15:08:47.009Z,19.15
2023-03-24T15:11:52.132Z,19.10
2023-03-24T15:14:57.525Z,19.04
2023-03-24T15:18:04.090Z,18.98
2023-03-24T15:21:17.094Z,18.93
2023-03-24T15:24:30.167Z,18.87
2023-03-24T15:27:34.602Z,18.83
2023-03-24T15:30:38.901Z,18.79
2023-03-24T15:33:44.086Z,18.75
2023-03-24T15:36:54.199Z,18.70
2023-03-24T15:40:05.578Z,18.65
2023-03-24T15:43:22.031Z,18.61
2023-03-24T15:46:28.285Z,18.57
2023-03-24T15:49:34.015Z,18.54
2023-03-24T15:52:39.137Z,18.49
2023-03-24T15:55:44.407Z,18.45
2023-03-24T15:58:50.126Z,18.41
2023-03-24T16:01:54.632Z,18.38
2023-03-24T16:05:10.854Z,18.37
2023-03-24T16:08:27.522Z,18.35
2023-03-24T16:11:32.026Z,18.31
2023-03-24T16:14:36.408Z,18.27
2023-03-24T16:17:41.034Z,18.21
2023-03-24T16:20:45.398Z,18.16
2023-03-24T16:23:50.495Z,18.12
2023-03-24T16:26:54.983Z,18.08
2023-03-24T16:29:59.382Z,18.00
2023-03-24T16:33:03.852Z,17.91
2023-03-24T16:36:11.608Z,17.84
2023-03-24T16:39:17.176Z,17.78
2023-03-24T16:42:21.730Z,17.72
2023-03-24T16:45:26.112Z,17.65
2023-03-24T16:48:30.515Z,17.58
2023-03-24T16:51:34.970Z,17.52
2023-03-24T16:54:39.216Z,17.46
2023-03-24T16:57:43.670Z,17.41
2023-03-24T17:00:49.798Z,17.35
2023-03-24T17:03:54.830Z,17.32
2023-03-24T17:06:59.313Z,17.27
2023-03-24T17:10:04.102Z,17.23
2023-03-24T17:13:08.566Z,17.19
2023-03-24T17:16:13.231Z,17.15
2023-03-24T17:19:18.462Z,17.10
2023-03-24T17:22:22.992Z,17.06
2023-03-24T17:25:29.314Z,17.01
2023-03-24T17:28:33.676Z,16.97
2023-03-24T17:31:38.154Z,16.91
2023-03-24T17:34:44.971Z,16.86
2023-03-24T17:37:49.806Z,16.83
2023-03-24T17:41:01.400Z,16.80
2023-03-24T17:44:06.054Z,16.76
2023-03-24T17:47:10.527Z,16.73
2023-03-24T17:50:15.369Z,16.68
2023-03-24T17:53:25.743Z,16.62
2023-03-24T17:56:30.396Z,16.55
2023-03-24T17:59:35.005Z,16.45
2023-03-24T18:02:40.008Z,16.37
2023-03-24T18:05:44.979Z,16.26
2023-03-24T18:08:51.949Z,16.20
2023-03-24T18:11:56.369Z,16.14
2023-03-24T18:15:00.786Z,16.08
2023-03-24T18:18:05.353Z,16.02
2023-03-24T18:21:09.973Z,15.96
2023-03-24T18:24:14.438Z,15.87
2023-03-24T18:27:18.733Z,15.80
2023-03-24T18:30:23.532Z,15.73
2023-03-24T18:33:31.465Z,15.69
2023-03-24T18:36:36.553Z,15.63
2023-03-24T18:39:40.982Z,15.59
2023-03-24T18:42:45.426Z,15.55
2023-03-24T18:45:50.160Z,15.50
2023-03-24T18:48:54.778Z,15.45
2023-03-24T18:51:59.300Z,15.39
2023-03-24T18:55:03.709Z,15.34
2023-03-24T18:58:10.370Z,15.27
2023-03-24T19:01:15.993Z,15.21
2023-03-24T19:04:20.490Z,15.16
2023-03-24T19:07:26.392Z,15.10
2023-03-24T19:10:31.512Z,15.05
2023-03-24T19:13:36.313Z,15.00
2023-03-24T19:16:40.919Z,14.91
2023-03-24T19:19:45.378Z,14.86
2023-03-24T19:22:49.793Z,14.84
2023-03-24T19:25:55.215Z,14.81
2023-03-24T19:28:59.587Z,14.80
2023-03-24T19:32:03.855Z,14.80
2023-03-24T19:35:09.475Z,14.80
2023-03-24T19:38:14.310Z,14.78
2023-03-24T19:41:18.659Z,14.74
2023-03-24T19:44:23.622Z,14.69
2023-03-24T19:47:28.124Z,14.64
2023-03-24T19:50:32.883Z,14.61
2023-03-24T19:53:37.326Z,14.57
2023-03-24T19:56:42.008Z,14.54
2023-03-24T19:59:46.359Z,14.50
2023-03-24T20:02:51.220Z,14.45
2023-03-24T20:05:55.811Z,14.40
2023-03-24T20:09:00.207Z,14.37
2023-03-24T20:12:05.077Z,14.32
2023-03-24T20:15:11.017Z,14.29
2023-03-24T20:18:15.616Z,14.26
2023-03-24T20:21:22.339Z,14.23
2023-03-24T20:24:26.772Z,14.19
2023-03-24T20:27:31.085Z,14.16
2023-03-24T20:30:35.406Z,14.13
2023-03-24T20:33:40.019Z,14.08
2023-03-24T20:36:44.452Z,14.04
2023-03-24T20:39:48.877Z,13.97
2023-03-24T20:42:53.385Z,13.91
2023-03-24T20:45:57.918Z,13.84
2023-03-24T20:49:02.612Z,13.79
2023-03-24T20:52:07.151Z,13.73
2023-03-24T20:55:12.544Z,13.69
2023-03-24T20:58:16.950Z,13.69
2023-03-24T21:01:22.325Z,13.71
2023-03-24T21:04:26.826Z,13.73
2023-03-24T21:07:31.212Z,13.78
2023-03-24T21:10:38.154Z,13.84
2023-03-24T21:13:42.545Z,13.89
2023-03-24T21:16:47.469Z,13.93
2023-03-24T21:19:54.806Z,13.95
2023-03-24T21:23:03.502Z,13.95
2023-03-24T21:26:08.339Z,13.97
2023-03-24T21:29:13.204Z,13.98
2023-03-24T21:32:17.633Z,14.00
2023-03-24T21:35:22.583Z,14.02
2023-03-24T21:38:27.203Z,14.03
2023-03-24T21:41:31.704Z,14.03
2023-03-24T21:44:36.327Z,14.04
2023-03-24T21:47:40.766Z,14.03
2023-03-24T21:50:45.565Z,14.02
2023-03-24T21:53:49.786Z,13.99
2023-03-24T21:56:54.256Z,13.95
2023-03-24T21:59:59.551Z,13.89
2023-03-24T22:03:04.088Z,13.82
2023-03-24T22:06:12.957Z,13.78
2023-03-24T22:09:19.293Z,13.73
2023-03-24T22:12:23.696Z,13.67
2023-03-24T22:15:28.195Z,13.64
2023-03-24T22:18:34.352Z,13.61
2023-03-24T22:21:39.776Z,13.59
2023-03-24T22:24:44.352Z,13.55
2023-03-24T22:27:52.116Z,13.49
2023-03-24T22:31:02.046Z,13.42
2023-03-24T22:34:06.453Z,13.38
2023-03-24T22:37:10.854Z,13.37
2023-03-24T22:40:15.184Z,13.35
2023-03-24T22:43:19.588Z,13.34
2023-03-24T22:46:24.749Z,13.31
2023-03-24T22:49:29.374Z,13.28
2023-03-24T22:52:33.789Z,13.26
2023-03-24T22:55:39.118Z,13.25
2023-03-24T22:58:43.542Z,13.24
2023-03-24T23:01:53.648Z,13.23
2023-03-24T23:05:07.414Z,13.22
2023-03-24T23:08:11.807Z,13.22
2023-03-24T23:11:16.084Z,13.21
2023-03-24T23:14:20.318Z,13.19
2023-03-24T23:17:25.310Z,13.18
2023-03-24T23:20:29.801Z,13.15
2023-03-24T23:23:34.263Z,13.11
2023-03-24T23:26:38.422Z,13.11
2023-03-24T23:29:42.775Z,13.10
2023-03-24T23:32:48.582Z,13.06
2023-03-24T23:35:56.769Z,13.03
2023-03-24T23:39:01.257Z,13.02
2023-03-24T23:42:05.703Z,13.03
2023-03-24T23:45:14.767Z,13.02
2023-03-24T23:48:19.279Z,13.02
2023-03-24T23:51:23.643Z,13.01
2023-03-24T23:54:27.869Z,12.99
2023-03-24T23:57:33.006Z,12.96
